Golden Iris — 3FZK4 — position and weather

sailwx.info

Track history (hours):
 
Tides and Currents Weather Stations Pressure Air Temp Water Temp Dewpoint Dewpoint Depression Visibility Wind Speed Wind Dir Waves Ship Positions

Golden Iris

Last reported at 2015-Jun-29 20:24 UTC. Time now 2015-Jul-01 04:55 UTC.
Position N 35°55' E 015°28'.

Length 180 m; draft 6 m.

Type: Passenger vessel. MMSI: 371771000.

Date/timePositionNaut miles runAvg speedWind from/ knotsBaromVisibWave heightAir tempDewpointWater temp
2015-Jun-29 20:24N 35°55' E 015°28'1314.7
2015-Jun-29 19:32N 35°55' E 015°12'1414.7
2015-Jun-29 18:33N 35°55' E 014°55'1413.8
2015-Jun-29 17:33N 35°55' E 014°38'5 0.4
2015-Jun-29 05:07N 35°54' E 014°31'5 9.2
2015-Jun-29 04:33N 35°58' E 014°35'8 7.9
2015-Jun-29 03:32N 36°04' E 014°41'9 8.9
2015-Jun-29 02:33N 36°11' E 014°48'9 8.9
2015-Jun-29 01:33N 36°18' E 014°55'9 9.0
2015-Jun-29 00:33N 36°26' E 015°01'9 9.0
2015-Jun-28 23:33N 36°33' E 015°08'9 9.1
2015-Jun-28 22:33N 36°41' E 015°14'10 9.8
2015-Jun-28 21:33N 36°49' E 015°20'10 9.9
2015-Jun-28 20:33N 36°58' E 015°26'48 3.1
2015-Jun-28 05:14N 37°46' E 015°21'1014.9
2015-Jun-28 04:33N 37°55' E 015°27'1514.8
2015-Jun-28 03:33N 38°08' E 015°34'1212.1
2015-Jun-28 02:34N 38°19' E 015°40'1211.7
2015-Jun-28 01:33N 38°30' E 015°33'1514.8
2015-Jun-28 00:33N 38°43' E 015°24'1515.0
2015-Jun-27 23:32N 38°57' E 015°15'10815.3
2015-Jun-27 16:30N 40°32' E 014°10'1414.4
2015-Jun-27 15:31N 40°46' E 014°16'90 2.3
2015-Jun-26 00:31N 40°58' E 012°18'14714.6
2015-Jun-25 14:28N 38°39' E 013°21'1415.0
2015-Jun-25 13:33N 38°26' E 013°24'1514.6
2015-Jun-25 12:34N 38°11' E 013°27'5 5.2
2015-Jun-25 11:33N 38°08' E 013°22'0 0.0
2015-Jun-25 10:33N 38°08' E 013°22'0 0.0
2015-Jun-25 09:33N 38°08' E 013°22'0 0.0
2015-Jun-25 08:33N 38°08' E 013°22'0 0.0
2015-Jun-25 07:33N 38°08' E 013°22'0 0.0
2015-Jun-25 06:33N 38°08' E 013°22'0 0.0
2015-Jun-25 05:33N 38°08' E 013°22'8 8.4
2015-Jun-25 04:34N 38°10' E 013°32'1514.7
2015-Jun-25 03:34N 38°11' E 013°51'5014.9
2015-Jun-25 00:12N 38°17' E 014°54'1015.0
2015-Jun-24 23:33N 38°19' E 015°07'1414.2
2015-Jun-24 22:33N 38°19' E 015°25'1413.6
2015-Jun-24 21:34N 38°18' E 015°42'1212.3
2015-Jun-24 20:33N 38°06' E 015°36'1413.8
2015-Jun-24 19:33N 37°53' E 015°44'1715.4
2015-Jun-24 18:26N 37°47' E 016°04'1314.8
2015-Jun-24 17:33N 37°43' E 016°19'1614.5
2015-Jun-24 16:27N 37°38' E 016°39'1314.4
2015-Jun-24 15:33N 37°34' E 016°54'1514.4
2015-Jun-24 14:33N 37°29' E 017°11'1514.0
2015-Jun-24 13:27N 37°24' E 017°30'1814.1
2015-Jun-24 12:09N 37°18' E 017°51'3814.6
2015-Jun-24 09:33N 37°06' E 018°37'  
2015-Jun-21 23:11N 33°49' E 031°40'914.4
2015-Jun-21 22:31N 33°46' E 031°51'1414.2
2015-Jun-21 21:33N 33°42' E 032°06'1414.1
2015-Jun-21 20:33N 33°37' E 032°22'1414.1
2015-Jun-21 19:33N 33°32' E 032°38'1514.2
2015-Jun-21 18:31N 33°27' E 032°54'1414.2
2015-Jun-21 17:33N 33°22' E 033°10'  
Track history (hours):
 
Tides and Currents Weather Stations Pressure Air Temp Water Temp Dewpoint Dewpoint Depression Visibility Wind Speed Wind Dir Waves Ship Positions

Golden Iris

Last reported at 2015-Jun-29 20:24 UTC. Time now 2015-Jul-01 04:55 UTC.
Position N 35°55' E 015°28'.

Length 180 m; draft 6 m.

Type: Passenger vessel. MMSI: 371771000.

Date/timePositionNaut miles runAvg speedWind from/ knotsBaromVisibWave heightAir tempDewpointWater temp
2015-Jun-29 20:24N 35°55' E 015°28'1314.7
2015-Jun-29 19:32N 35°55' E 015°12'1414.7
2015-Jun-29 18:33N 35°55' E 014°55'1413.8
2015-Jun-29 17:33N 35°55' E 014°38'5 0.4
2015-Jun-29 05:07N 35°54' E 014°31'5 9.2
2015-Jun-29 04:33N 35°58' E 014°35'8 7.9
2015-Jun-29 03:32N 36°04' E 014°41'9 8.9
2015-Jun-29 02:33N 36°11' E 014°48'9 8.9
2015-Jun-29 01:33N 36°18' E 014°55'9 9.0
2015-Jun-29 00:33N 36°26' E 015°01'9 9.0
2015-Jun-28 23:33N 36°33' E 015°08'9 9.1
2015-Jun-28 22:33N 36°41' E 015°14'10 9.8
2015-Jun-28 21:33N 36°49' E 015°20'10 9.9
2015-Jun-28 20:33N 36°58' E 015°26'48 3.1
2015-Jun-28 05:14N 37°46' E 015°21'1014.9
2015-Jun-28 04:33N 37°55' E 015°27'1514.8
2015-Jun-28 03:33N 38°08' E 015°34'1212.1
2015-Jun-28 02:34N 38°19' E 015°40'1211.7
2015-Jun-28 01:33N 38°30' E 015°33'1514.8
2015-Jun-28 00:33N 38°43' E 015°24'1515.0
2015-Jun-27 23:32N 38°57' E 015°15'10815.3
2015-Jun-27 16:30N 40°32' E 014°10'1414.4
2015-Jun-27 15:31N 40°46' E 014°16'90 2.3
2015-Jun-26 00:31N 40°58' E 012°18'14714.6
2015-Jun-25 14:28N 38°39' E 013°21'1415.0
2015-Jun-25 13:33N 38°26' E 013°24'1514.6
2015-Jun-25 12:34N 38°11' E 013°27'5 5.2
2015-Jun-25 11:33N 38°08' E 013°22'0 0.0
2015-Jun-25 10:33N 38°08' E 013°22'0 0.0
2015-Jun-25 09:33N 38°08' E 013°22'0 0.0
2015-Jun-25 08:33N 38°08' E 013°22'0 0.0
2015-Jun-25 07:33N 38°08' E 013°22'0 0.0
2015-Jun-25 06:33N 38°08' E 013°22'0 0.0
2015-Jun-25 05:33N 38°08' E 013°22'8 8.4
2015-Jun-25 04:34N 38°10' E 013°32'1514.7
2015-Jun-25 03:34N 38°11' E 013°51'5014.9
2015-Jun-25 00:12N 38°17' E 014°54'1015.0
2015-Jun-24 23:33N 38°19' E 015°07'1414.2
2015-Jun-24 22:33N 38°19' E 015°25'1413.6
2015-Jun-24 21:34N 38°18' E 015°42'1212.3
2015-Jun-24 20:33N 38°06' E 015°36'1413.8
2015-Jun-24 19:33N 37°53' E 015°44'1715.4
2015-Jun-24 18:26N 37°47' E 016°04'1314.8
2015-Jun-24 17:33N 37°43' E 016°19'1614.5
2015-Jun-24 16:27N 37°38' E 016°39'1314.4
2015-Jun-24 15:33N 37°34' E 016°54'1514.4
2015-Jun-24 14:33N 37°29' E 017°11'1514.0
2015-Jun-24 13:27N 37°24' E 017°30'1814.1
2015-Jun-24 12:09N 37°18' E 017°51'3814.6
2015-Jun-24 09:33N 37°06' E 018°37'  
2015-Jun-21 23:11N 33°49' E 031°40'914.4
2015-Jun-21 22:31N 33°46' E 031°51'1414.2
2015-Jun-21 21:33N 33°42' E 032°06'1414.1
2015-Jun-21 20:33N 33°37' E 032°22'1414.1
2015-Jun-21 19:33N 33°32' E 032°38'1514.2
2015-Jun-21 18:31N 33°27' E 032°54'1414.2
2015-Jun-21 17:33N 33°22' E 033°10'  

Dump ship's entire track history